sensor_id;sensor_type;location;lat;lon;timestamp;temperature;humidity
20045;DHT22;10183;47.808;9.476;2023-11-18T00:01:32;3.80;99.90
20045;DHT22;10183;47.808;9.476;2023-11-18T00:04:19;3.70;99.90
20045;DHT22;10183;47.808;9.476;2023-11-18T00:07:04;3.80;99.90
20045;DHT22;10183;47.808;9.476;2023-11-18T00:09:50;3.80;99.90
20045;DHT22;10183;47.808;9.476;2023-11-18T00:12:37;3.80;99.90
20045;DHT22;10183;47.808;9.476;2023-11-18T00:15:26;3.90;99.90
20045;DHT22;10183;47.808;9.476;2023-11-18T00:18:12;3.90;99.90
20045;DHT22;10183;47.808;9.476;2023-11-18T00:20:58;4.00;99.90
20045;DHT22;10183;47.808;9.476;2023-11-18T00:23:44;4.00;99.90
20045;DHT22;10183;47.808;9.476;2023-11-18T00:26:31;3.90;99.90
20045;DHT22;10183;47.808;9.476;2023-11-18T00:29:17;3.90;99.90
20045;DHT22;10183;47.808;9.476;2023-11-18T00:32:03;3.90;99.90
20045;DHT22;10183;47.808;9.476;2023-11-18T00:34:49;3.90;99.90
20045;DHT22;10183;47.808;9.476;2023-11-18T00:37:35;3.90;99.90
20045;DHT22;10183;47.808;9.476;2023-11-18T00:40:21;3.90;99.90
20045;DHT22;10183;47.808;9.476;2023-11-18T00:43:08;3.90;99.90
20045;DHT22;10183;47.808;9.476;2023-11-18T00:45:54;3.90;99.90
20045;DHT22;10183;47.808;9.476;2023-11-18T00:48:40;3.90;99.90
20045;DHT22;10183;47.808;9.476;2023-11-18T00:51:26;3.80;99.90
20045;DHT22;10183;47.808;9.476;2023-11-18T00:54:13;3.90;99.90
20045;DHT22;10183;47.808;9.476;2023-11-18T00:56:59;3.80;99.90
20045;DHT22;10183;47.808;9.476;2023-11-18T00:59:45;3.90;99.90
20045;DHT22;10183;47.808;9.476;2023-11-18T01:02:31;3.80;99.90
20045;DHT22;10183;47.808;9.476;2023-11-18T01:05:17;3.70;99.90
20045;DHT22;10183;47.808;9.476;2023-11-18T01:08:04;3.70;99.90
20045;DHT22;10183;47.808;9.476;2023-11-18T01:10:50;3.70;99.90
20045;DHT22;10183;47.808;9.476;2023-11-18T01:13:37;3.70;99.90
20045;DHT22;10183;47.808;9.476;2023-11-18T01:16:23;3.70;99.90
20045;DHT22;10183;47.808;9.476;2023-11-18T01:19:09;3.70;99.90
20045;DHT22;10183;47.808;9.476;2023-11-18T01:21:55;3.60;99.90
20045;DHT22;10183;47.808;9.476;2023-11-18T01:24:41;3.60;99.90
20045;DHT22;10183;47.808;9.476;2023-11-18T01:27:27;3.60;99.90
20045;DHT22;10183;47.808;9.476;2023-11-18T01:30:14;3.50;99.90
20045;DHT22;10183;47.808;9.476;2023-11-18T01:33:00;3.40;99.90
20045;DHT22;10183;47.808;9.476;2023-11-18T01:35:46;3.40;99.90
20045;DHT22;10183;47.808;9.476;2023-11-18T01:38:32;3.40;99.90
20045;DHT22;10183;47.808;9.476;2023-11-18T01:41:18;3.40;99.90
20045;DHT22;10183;47.808;9.476;2023-11-18T01:44:05;3.40;99.90
20045;DHT22;10183;47.808;9.476;2023-11-18T01:46:51;3.40;99.90
20045;DHT22;10183;47.808;9.476;2023-11-18T01:49:38;3.40;99.90
20045;DHT22;10183;47.808;9.476;2023-11-18T01:52:28;3.30;99.90
20045;DHT22;10183;47.808;9.476;2023-11-18T01:55:15;3.30;99.90
20045;DHT22;10183;47.808;9.476;2023-11-18T01:58:02;3.30;99.90
20045;DHT22;10183;47.808;9.476;2023-11-18T02:00:56;3.30;99.90
20045;DHT22;10183;47.808;9.476;2023-11-18T02:03:42;3.40;99.90
20045;DHT22;10183;47.808;9.476;2023-11-18T02:06:28;3.40;99.90
20045;DHT22;10183;47.808;9.476;2023-11-18T02:09:15;3.40;99.90
20045;DHT22;10183;47.808;9.476;2023-11-18T02:14:57;3.50;99.90
20045;DHT22;10183;47.808;9.476;2023-11-18T02:17:45;3.50;99.90
20045;DHT22;10183;47.808;9.476;2023-11-18T02:20:34;3.40;99.90
20045;DHT22;10183;47.808;9.476;2023-11-18T02:23:20;3.40;99.90
20045;DHT22;10183;47.808;9.476;2023-11-18T02:26:08;3.40;99.90
20045;DHT22;10183;47.808;9.476;2023-11-18T02:28:55;3.40;99.90
20045;DHT22;10183;47.808;9.476;2023-11-18T02:31:42;3.40;99.90
20045;DHT22;10183;47.808;9.476;2023-11-18T02:34:31;3.40;99.90
20045;DHT22;10183;47.808;9.476;2023-11-18T02:37:18;3.40;99.90
20045;DHT22;10183;47.808;9.476;2023-11-18T02:40:04;3.40;99.90
20045;DHT22;10183;47.808;9.476;2023-11-18T02:42:54;3.40;99.90
20045;DHT22;10183;47.808;9.476;2023-11-18T02:45:41;3.40;99.90
20045;DHT22;10183;47.808;9.476;2023-11-18T02:48:28;3.30;99.90
20045;DHT22;10183;47.808;9.476;2023-11-18T02:51:14;3.30;99.90
20045;DHT22;10183;47.808;9.476;2023-11-18T02:54:02;3.30;99.90
20045;DHT22;10183;47.808;9.476;2023-11-18T02:56:48;3.30;99.90
20045;DHT22;10183;47.808;9.476;2023-11-18T02:59:34;3.30;99.90
20045;DHT22;10183;47.808;9.476;2023-11-18T03:02:20;3.30;99.90
20045;DHT22;10183;47.808;9.476;2023-11-18T03:05:07;3.30;99.90
20045;DHT22;10183;47.808;9.476;2023-11-18T03:07:53;3.30;99.90
20045;DHT22;10183;47.808;9.476;2023-11-18T03:10:41;3.20;99.90
20045;DHT22;10183;47.808;9.476;2023-11-18T03:13:29;3.30;99.90
20045;DHT22;10183;47.808;9.476;2023-11-18T03:16:15;3.30;99.90
20045;DHT22;10183;47.808;9.476;2023-11-18T03:19:02;3.20;99.90
20045;DHT22;10183;47.808;9.476;2023-11-18T03:21:51;3.20;99.90
20045;DHT22;10183;47.808;9.476;2023-11-18T03:24:38;3.20;99.90
20045;DHT22;10183;47.808;9.476;2023-11-18T03:27:24;3.20;99.90
20045;DHT22;10183;47.808;9.476;2023-11-18T03:30:11;3.20;99.90
20045;DHT22;10183;47.808;9.476;2023-11-18T03:32:57;3.20;99.90
20045;DHT22;10183;47.808;9.476;2023-11-18T03:35:43;3.30;99.90
20045;DHT22;10183;47.808;9.476;2023-11-18T03:38:29;3.30;99.90
20045;DHT22;10183;47.808;9.476;2023-11-18T03:41:15;3.30;99.90
20045;DHT22;10183;47.808;9.476;2023-11-18T03:44:01;3.30;99.90
20045;DHT22;10183;47.808;9.476;2023-11-18T03:46:47;3.20;99.90
20045;DHT22;10183;47.808;9.476;2023-11-18T03:49:33;3.10;99.90
20045;DHT22;10183;47.808;9.476;2023-11-18T03:52:19;3.10;99.90
20045;DHT22;10183;47.808;9.476;2023-11-18T03:55:06;3.00;99.90
20045;DHT22;10183;47.808;9.476;2023-11-18T03:57:52;3.10;99.90
20045;DHT22;10183;47.808;9.476;2023-11-18T04:00:38;3.10;99.90
20045;DHT22;10183;47.808;9.476;2023-11-18T04:03:24;3.10;99.90
20045;DHT22;10183;47.808;9.476;2023-11-18T04:06:10;3.00;99.90
20045;DHT22;10183;47.808;9.476;2023-11-18T04:08:56;3.00;99.90
20045;DHT22;10183;47.808;9.476;2023-11-18T04:11:42;3.10;99.90
20045;DHT22;10183;47.808;9.476;2023-11-18T04:14:30;3.20;99.90
20045;DHT22;10183;47.808;9.476;2023-11-18T04:17:17;3.10;99.90
20045;DHT22;10183;47.808;9.476;2023-11-18T04:20:03;3.20;99.90
20045;DHT22;10183;47.808;9.476;2023-11-18T04:22:54;3.10;99.90
20045;DHT22;10183;47.808;9.476;2023-11-18T04:25:40;3.10;99.90
20045;DHT22;10183;47.808;9.476;2023-11-18T04:28:26;3.20;99.90
20045;DHT22;10183;47.808;9.476;2023-11-18T04:31:12;3.20;99.90
20045;DHT22;10183;47.808;9.476;2023-11-18T04:33:58;3.20;99.90
20045;DHT22;10183;47.808;9.476;2023-11-18T04:36:44;3.20;99.90
20045;DHT22;10183;47.808;9.476;2023-11-18T04:39:34;3.20;99.90
20045;DHT22;10183;47.808;9.476;2023-11-18T04:42:20;3.20;99.90
20045;DHT22;10183;47.808;9.476;2023-11-18T04:45:06;3.30;99.90
20045;DHT22;10183;47.808;9.476;2023-11-18T04:47:55;3.20;99.90
20045;DHT22;10183;47.808;9.476;2023-11-18T04:50:42;3.30;99.90
20045;DHT22;10183;47.808;9.476;2023-11-18T04:53:28;3.30;99.90
20045;DHT22;10183;47.808;9.476;2023-11-18T04:56:14;3.30;99.90
20045;DHT22;10183;47.808;9.476;2023-11-18T04:59:03;3.30;99.90
20045;DHT22;10183;47.808;9.476;2023-11-18T05:01:50;3.40;99.90
20045;DHT22;10183;47.808;9.476;2023-11-18T05:04:38;3.40;99.90
20045;DHT22;10183;47.808;9.476;2023-11-18T05:07:24;3.30;99.90
20045;DHT22;10183;47.808;9.476;2023-11-18T05:10:10;3.30;99.90
20045;DHT22;10183;47.808;9.476;2023-11-18T05:12:57;3.20;99.90
20045;DHT22;10183;47.808;9.476;2023-11-18T05:15:46;3.30;99.90
20045;DHT22;10183;47.808;9.476;2023-11-18T05:18:33;3.20;99.90
20045;DHT22;10183;47.808;9.476;2023-11-18T05:21:22;3.20;99.90
20045;DHT22;10183;47.808;9.476;2023-11-18T05:24:09;3.20;99.90
20045;DHT22;10183;47.808;9.476;2023-11-18T05:26:55;3.20;99.90
20045;DHT22;10183;47.808;9.476;2023-11-18T05:29:41;3.20;99.90
20045;DHT22;10183;47.808;9.476;2023-11-18T05:32:28;3.10;99.90
20045;DHT22;10183;47.808;9.476;2023-11-18T05:35:14;3.10;99.90
20045;DHT22;10183;47.808;9.476;2023-11-18T05:38:00;3.00;99.90
20045;DHT22;10183;47.808;9.476;2023-11-18T05:40:48;2.90;99.90
20045;DHT22;10183;47.808;9.476;2023-11-18T05:43:46;2.90;99.90
20045;DHT22;10183;47.808;9.476;2023-11-18T05:46:37;2.80;99.90
20045;DHT22;10183;47.808;9.476;2023-11-18T05:49:24;2.90;99.90
20045;DHT22;10183;47.808;9.476;2023-11-18T05:52:10;3.00;99.90
20045;DHT22;10183;47.808;9.476;2023-11-18T05:54:57;3.00;99.90
20045;DHT22;10183;47.808;9.476;2023-11-18T05:57:43;2.90;99.90
20045;DHT22;10183;47.808;9.476;2023-11-18T06:00:30;2.90;99.90
20045;DHT22;10183;47.808;9.476;2023-11-18T06:03:16;3.00;99.90
20045;DHT22;10183;47.808;9.476;2023-11-18T06:06:07;3.00;99.90
20045;DHT22;10183;47.808;9.476;2023-11-18T06:08:53;3.00;99.90
20045;DHT22;10183;47.808;9.476;2023-11-18T06:11:39;3.10;99.90
20045;DHT22;10183;47.808;9.476;2023-11-18T06:14:26;3.10;99.90
20045;DHT22;10183;47.808;9.476;2023-11-18T06:17:12;3.20;99.90
20045;DHT22;10183;47.808;9.476;2023-11-18T06:19:58;3.20;99.90
20045;DHT22;10183;47.808;9.476;2023-11-18T06:22:44;3.20;99.90
20045;DHT22;10183;47.808;9.476;2023-11-18T06:25:30;3.30;99.90
20045;DHT22;10183;47.808;9.476;2023-11-18T06:28:17;3.30;99.90
20045;DHT22;10183;47.808;9.476;2023-11-18T06:31:04;3.30;99.90
20045;DHT22;10183;47.808;9.476;2023-11-18T06:33:54;3.30;99.90
20045;DHT22;10183;47.808;9.476;2023-11-18T06:36:40;3.30;99.90
20045;DHT22;10183;47.808;9.476;2023-11-18T06:39:26;3.30;99.90
20045;DHT22;10183;47.808;9.476;2023-11-18T06:42:15;3.40;99.90
20045;DHT22;10183;47.808;9.476;2023-11-18T06:45:01;3.40;99.90
20045;DHT22;10183;47.808;9.476;2023-11-18T06:47:47;3.40;99.90
20045;DHT22;10183;47.808;9.476;2023-11-18T06:50:34;3.40;99.90
20045;DHT22;10183;47.808;9.476;2023-11-18T06:53:21;3.50;99.90
20045;DHT22;10183;47.808;9.476;2023-11-18T06:56:07;3.40;99.90
20045;DHT22;10183;47.808;9.476;2023-11-18T06:58:54;3.50;99.90
20045;DHT22;10183;47.808;9.476;2023-11-18T07:01:41;3.40;99.90
20045;DHT22;10183;47.808;9.476;2023-11-18T07:04:28;3.40;99.90
20045;DHT22;10183;47.808;9.476;2023-11-18T07:07:14;3.50;99.90
20045;DHT22;10183;47.808;9.476;2023-11-18T07:10:00;3.50;99.90
20045;DHT22;10183;47.808;9.476;2023-11-18T07:12:46;3.50;99.90
20045;DHT22;10183;47.808;9.476;2023-11-18T07:15:33;3.50;99.90
20045;DHT22;10183;47.808;9.476;2023-11-18T07:18:19;3.60;99.90
20045;DHT22;10183;47.808;9.476;2023-11-18T07:21:08;3.60;99.90
20045;DHT22;10183;47.808;9.476;2023-11-18T07:23:54;3.70;99.90
20045;DHT22;10183;47.808;9.476;2023-11-18T07:26:40;3.70;99.90
20045;DHT22;10183;47.808;9.476;2023-11-18T07:29:26;3.70;99.90
20045;DHT22;10183;47.808;9.476;2023-11-18T07:32:12;3.80;99.90
20045;DHT22;10183;47.808;9.476;2023-11-18T07:34:59;3.80;99.90
20045;DHT22;10183;47.808;9.476;2023-11-18T07:37:45;3.90;99.90
20045;DHT22;10183;47.808;9.476;2023-11-18T07:40:31;3.90;99.90
20045;DHT22;10183;47.808;9.476;2023-11-18T07:43:19;4.00;99.90
20045;DHT22;10183;47.808;9.476;2023-11-18T07:46:07;4.00;99.90
20045;DHT22;10183;47.808;9.476;2023-11-18T07:48:53;3.90;99.90
20045;DHT22;10183;47.808;9.476;2023-11-18T07:51:39;4.00;99.90
20045;DHT22;10183;47.808;9.476;2023-11-18T07:54:27;4.00;99.90
20045;DHT22;10183;47.808;9.476;2023-11-18T07:57:13;4.00;99.90
20045;DHT22;10183;47.808;9.476;2023-11-18T07:59:59;4.10;99.90
20045;DHT22;10183;47.808;9.476;2023-11-18T08:02:51;4.20;99.90
20045;DHT22;10183;47.808;9.476;2023-11-18T08:05:44;4.20;99.90
20045;DHT22;10183;47.808;9.476;2023-11-18T08:08:30;4.30;99.90
20045;DHT22;10183;47.808;9.476;2023-11-18T08:11:17;4.40;99.90
20045;DHT22;10183;47.808;9.476;2023-11-18T08:14:03;4.50;99.90
20045;DHT22;10183;47.808;9.476;2023-11-18T08:16:49;4.50;99.90
20045;DHT22;10183;47.808;9.476;2023-11-18T08:19:36;4.60;99.90
20045;DHT22;10183;47.808;9.476;2023-11-18T08:22:23;4.70;99.90
20045;DHT22;10183;47.808;9.476;2023-11-18T08:25:10;4.40;99.90
20045;DHT22;10183;47.808;9.476;2023-11-18T08:27:58;4.40;99.90
20045;DHT22;10183;47.808;9.476;2023-11-18T08:30:44;4.40;99.90
20045;DHT22;10183;47.808;9.476;2023-11-18T08:33:30;4.40;99.90
20045;DHT22;10183;47.808;9.476;2023-11-18T08:36:16;4.30;99.90
20045;DHT22;10183;47.808;9.476;2023-11-18T08:39:03;4.30;99.90
20045;DHT22;10183;47.808;9.476;2023-11-18T08:41:50;4.20;99.90
20045;DHT22;10183;47.808;9.476;2023-11-18T08:44:36;4.30;99.90
20045;DHT22;10183;47.808;9.476;2023-11-18T08:47:24;4.30;99.90
20045;DHT22;10183;47.808;9.476;2023-11-18T08:50:10;4.40;99.90
20045;DHT22;10183;47.808;9.476;2023-11-18T08:52:58;4.30;99.90
20045;DHT22;10183;47.808;9.476;2023-11-18T08:55:44;4.60;99.90
20045;DHT22;10183;47.808;9.476;2023-11-18T08:58:56;4.40;99.90
20045;DHT22;10183;47.808;9.476;2023-11-18T09:01:45;4.70;99.90
20045;DHT22;10183;47.808;9.476;2023-11-18T09:04:34;4.70;99.90
20045;DHT22;10183;47.808;9.476;2023-11-18T09:07:21;4.90;99.90
20045;DHT22;10183;47.808;9.476;2023-11-18T09:10:07;5.00;99.90
20045;DHT22;10183;47.808;9.476;2023-11-18T09:12:55;4.70;99.90
20045;DHT22;10183;47.808;9.476;2023-11-18T09:15:40;4.60;99.90
20045;DHT22;10183;47.808;9.476;2023-11-18T09:18:29;4.50;99.90
20045;DHT22;10183;47.808;9.476;2023-11-18T09:21:16;4.60;99.90
20045;DHT22;10183;47.808;9.476;2023-11-18T09:24:05;4.90;99.90
20045;DHT22;10183;47.808;9.476;2023-11-18T09:26:53;5.10;99.90
20045;DHT22;10183;47.808;9.476;2023-11-18T09:29:40;5.30;99.90
20045;DHT22;10183;47.808;9.476;2023-11-18T09:32:27;5.40;99.90
20045;DHT22;10183;47.808;9.476;2023-11-18T09:35:13;5.40;99.90
20045;DHT22;10183;47.808;9.476;2023-11-18T09:37:59;5.50;99.90
20045;DHT22;10183;47.808;9.476;2023-11-18T09:40:47;5.60;99.90
20045;DHT22;10183;47.808;9.476;2023-11-18T09:43:35;5.60;99.90
20045;DHT22;10183;47.808;9.476;2023-11-18T09:46:36;5.60;99.90
20045;DHT22;10183;47.808;9.476;2023-11-18T09:49:31;5.50;99.90
20045;DHT22;10183;47.808;9.476;2023-11-18T09:52:25;5.70;99.90
20045;DHT22;10183;47.808;9.476;2023-11-18T09:55:18;6.20;99.90
20045;DHT22;10183;47.808;9.476;2023-11-18T09:58:15;6.00;99.90
20045;DHT22;10183;47.808;9.476;2023-11-18T10:01:01;5.80;99.90
20045;DHT22;10183;47.808;9.476;2023-11-18T10:03:49;5.80;99.90
20045;DHT22;10183;47.808;9.476;2023-11-18T10:06:37;6.00;99.90
20045;DHT22;10183;47.808;9.476;2023-11-18T10:09:29;6.10;99.90
20045;DHT22;10183;47.808;9.476;2023-11-18T10:12:25;5.90;99.90
20045;DHT22;10183;47.808;9.476;2023-11-18T10:15:17;6.10;99.90
20045;DHT22;10183;47.808;9.476;2023-11-18T10:18:03;6.10;99.90
20045;DHT22;10183;47.808;9.476;2023-11-18T10:21:07;6.00;99.90
20045;DHT22;10183;47.808;9.476;2023-11-18T10:24:00;6.20;99.90
20045;DHT22;10183;47.808;9.476;2023-11-18T10:26:55;6.30;99.90
20045;DHT22;10183;47.808;9.476;2023-11-18T10:29:44;6.10;99.90
20045;DHT22;10183;47.808;9.476;2023-11-18T10:32:31;6.10;99.90
20045;DHT22;10183;47.808;9.476;2023-11-18T10:35:21;6.20;99.90
20045;DHT22;10183;47.808;9.476;2023-11-18T10:38:07;6.30;99.90
20045;DHT22;10183;47.808;9.476;2023-11-18T10:40:54;6.30;99.90
20045;DHT22;10183;47.808;9.476;2023-11-18T10:43:43;6.20;99.90
20045;DHT22;10183;47.808;9.476;2023-11-18T10:46:30;6.30;99.90
20045;DHT22;10183;47.808;9.476;2023-11-18T10:49:17;6.30;99.90
20045;DHT22;10183;47.808;9.476;2023-11-18T10:52:04;6.60;99.90
20045;DHT22;10183;47.808;9.476;2023-11-18T10:54:53;6.60;99.90
20045;DHT22;10183;47.808;9.476;2023-11-18T10:57:40;6.80;99.90
20045;DHT22;10183;47.808;9.476;2023-11-18T11:00:27;6.90;99.90
20045;DHT22;10183;47.808;9.476;2023-11-18T11:03:19;6.70;99.90
20045;DHT22;10183;47.808;9.476;2023-11-18T11:06:16;6.70;99.90
20045;DHT22;10183;47.808;9.476;2023-11-18T11:09:05;6.70;99.90
20045;DHT22;10183;47.808;9.476;2023-11-18T11:12:00;6.70;99.90
20045;DHT22;10183;47.808;9.476;2023-11-18T11:15:08;6.20;99.90
20045;DHT22;10183;47.808;9.476;2023-11-18T11:18:04;6.00;99.90
20045;DHT22;10183;47.808;9.476;2023-11-18T11:21:07;6.10;99.90
20045;DHT22;10183;47.808;9.476;2023-11-18T11:24:11;6.00;99.90
20045;DHT22;10183;47.808;9.476;2023-11-18T11:27:11;6.20;99.90
20045;DHT22;10183;47.808;9.476;2023-11-18T11:30:15;6.10;99.90
20045;DHT22;10183;47.808;9.476;2023-11-18T11:33:14;5.90;99.90
20045;DHT22;10183;47.808;9.476;2023-11-18T11:36:03;6.10;99.90
20045;DHT22;10183;47.808;9.476;2023-11-18T11:38:52;6.10;99.90
20045;DHT22;10183;47.808;9.476;2023-11-18T11:41:45;6.10;99.90
20045;DHT22;10183;47.808;9.476;2023-11-18T11:44:37;6.10;99.90
20045;DHT22;10183;47.808;9.476;2023-11-18T11:47:29;6.30;99.90
20045;DHT22;10183;47.808;9.476;2023-11-18T11:50:27;6.40;99.90
20045;DHT22;10183;47.808;9.476;2023-11-18T11:53:22;6.70;99.90
20045;DHT22;10183;47.808;9.476;2023-11-18T11:56:09;6.70;99.90
20045;DHT22;10183;47.808;9.476;2023-11-18T11:58:59;7.00;99.90
20045;DHT22;10183;47.808;9.476;2023-11-18T12:01:47;7.00;99.90
20045;DHT22;10183;47.808;9.476;2023-11-18T12:04:38;6.90;99.90
20045;DHT22;10183;47.808;9.476;2023-11-18T12:07:27;7.20;99.90
20045;DHT22;10183;47.808;9.476;2023-11-18T12:10:15;7.40;99.90
20045;DHT22;10183;47.808;9.476;2023-11-18T12:13:10;7.50;99.90
20045;DHT22;10183;47.808;9.476;2023-11-18T12:16:05;7.50;99.90
20045;DHT22;10183;47.808;9.476;2023-11-18T12:19:30;8.00;99.90
20045;DHT22;10183;47.808;9.476;2023-11-18T12:23:02;8.10;99.90
20045;DHT22;10183;47.808;9.476;2023-11-18T12:25:51;8.30;99.90
20045;DHT22;10183;47.808;9.476;2023-11-18T12:28:40;8.40;99.90
20045;DHT22;10183;47.808;9.476;2023-11-18T12:31:40;7.50;99.90
20045;DHT22;10183;47.808;9.476;2023-11-18T12:34:50;7.40;99.90
20045;DHT22;10183;47.808;9.476;2023-11-18T12:37:47;7.20;99.90
20045;DHT22;10183;47.808;9.476;2023-11-18T12:40:55;7.30;99.90
20045;DHT22;10183;47.808;9.476;2023-11-18T12:47:19;7.10;99.90
20045;DHT22;10183;47.808;9.476;2023-11-18T12:50:09;6.80;99.90
20045;DHT22;10183;47.808;9.476;2023-11-18T12:53:03;6.70;99.90
20045;DHT22;10183;47.808;9.476;2023-11-18T12:55:52;6.70;99.90
20045;DHT22;10183;47.808;9.476;2023-11-18T12:58:39;6.60;99.90
20045;DHT22;10183;47.808;9.476;2023-11-18T13:01:26;6.60;99.90
20045;DHT22;10183;47.808;9.476;2023-11-18T13:04:13;6.60;99.90
20045;DHT22;10183;47.808;9.476;2023-11-18T13:07:00;6.40;99.90
20045;DHT22;10183;47.808;9.476;2023-11-18T13:09:47;6.40;99.90
20045;DHT22;10183;47.808;9.476;2023-11-18T13:12:33;6.40;99.90
20045;DHT22;10183;47.808;9.476;2023-11-18T13:15:20;6.30;99.90
20045;DHT22;10183;47.808;9.476;2023-11-18T13:18:10;6.30;99.90
20045;DHT22;10183;47.808;9.476;2023-11-18T13:20:58;6.30;99.90
20045;DHT22;10183;47.808;9.476;2023-11-18T13:23:48;6.10;99.90
20045;DHT22;10183;47.808;9.476;2023-11-18T13:26:36;5.90;99.90
20045;DHT22;10183;47.808;9.476;2023-11-18T13:29:23;5.80;99.90
20045;DHT22;10183;47.808;9.476;2023-11-18T13:32:10;5.80;99.90
20045;DHT22;10183;47.808;9.476;2023-11-18T13:34:56;5.70;99.90
20045;DHT22;10183;47.808;9.476;2023-11-18T13:37:45;5.70;99.90
20045;DHT22;10183;47.808;9.476;2023-11-18T13:40:47;5.60;99.90
20045;DHT22;10183;47.808;9.476;2023-11-18T13:43:46;5.60;99.90
20045;DHT22;10183;47.808;9.476;2023-11-18T13:46:38;5.50;99.90
20045;DHT22;10183;47.808;9.476;2023-11-18T13:49:29;5.50;99.90
20045;DHT22;10183;47.808;9.476;2023-11-18T13:52:15;5.50;99.90
20045;DHT22;10183;47.808;9.476;2023-11-18T13:55:03;5.50;99.90
20045;DHT22;10183;47.808;9.476;2023-11-18T13:57:53;5.50;99.90
20045;DHT22;10183;47.808;9.476;2023-11-18T14:00:41;5.50;99.90
20045;DHT22;10183;47.808;9.476;2023-11-18T14:03:28;5.50;99.90
20045;DHT22;10183;47.808;9.476;2023-11-18T14:06:14;5.50;99.90
20045;DHT22;10183;47.808;9.476;2023-11-18T14:09:03;5.50;99.90
20045;DHT22;10183;47.808;9.476;2023-11-18T14:11:53;5.50;99.90
20045;DHT22;10183;47.808;9.476;2023-11-18T14:14:42;5.50;99.90
20045;DHT22;10183;47.808;9.476;2023-11-18T14:17:29;5.40;99.90
20045;DHT22;10183;47.808;9.476;2023-11-18T14:20:15;5.40;99.90
20045;DHT22;10183;47.808;9.476;2023-11-18T14:23:04;5.40;99.90
20045;DHT22;10183;47.808;9.476;2023-11-18T14:25:50;5.50;99.90
20045;DHT22;10183;47.808;9.476;2023-11-18T14:28:37;5.50;99.90
20045;DHT22;10183;47.808;9.476;2023-11-18T14:31:23;5.50;99.90
20045;DHT22;10183;47.808;9.476;2023-11-18T14:34:11;5.50;99.90
20045;DHT22;10183;47.808;9.476;2023-11-18T14:36:57;5.50;99.90
20045;DHT22;10183;47.808;9.476;2023-11-18T14:39:43;5.50;99.90
20045;DHT22;10183;47.808;9.476;2023-11-18T14:42:30;5.40;99.90
20045;DHT22;10183;47.808;9.476;2023-11-18T14:45:17;5.40;99.90
20045;DHT22;10183;47.808;9.476;2023-11-18T14:48:03;5.40;99.90
20045;DHT22;10183;47.808;9.476;2023-11-18T14:50:49;5.50;99.90
20045;DHT22;10183;47.808;9.476;2023-11-18T14:53:35;5.40;99.90
20045;DHT22;10183;47.808;9.476;2023-11-18T14:56:21;5.40;99.90
20045;DHT22;10183;47.808;9.476;2023-11-18T14:59:07;5.40;99.90
20045;DHT22;10183;47.808;9.476;2023-11-18T15:01:53;5.40;99.90
20045;DHT22;10183;47.808;9.476;2023-11-18T15:04:43;5.40;99.90
20045;DHT22;10183;47.808;9.476;2023-11-18T15:07:29;5.40;99.90
20045;DHT22;10183;47.808;9.476;2023-11-18T15:10:16;5.40;99.90
20045;DHT22;10183;47.808;9.476;2023-11-18T15:13:05;5.40;99.90
20045;DHT22;10183;47.808;9.476;2023-11-18T15:15:51;5.40;99.90
20045;DHT22;10183;47.808;9.476;2023-11-18T15:18:37;5.40;99.90
20045;DHT22;10183;47.808;9.476;2023-11-18T15:21:24;5.40;99.90
20045;DHT22;10183;47.808;9.476;2023-11-18T15:24:10;5.40;99.90
20045;DHT22;10183;47.808;9.476;2023-11-18T15:26:56;5.40;99.90
20045;DHT22;10183;47.808;9.476;2023-11-18T15:29:41;5.30;99.90
20045;DHT22;10183;47.808;9.476;2023-11-18T15:32:35;5.20;99.90
20045;DHT22;10183;47.808;9.476;2023-11-18T15:35:21;5.20;99.90
20045;DHT22;10183;47.808;9.476;2023-11-18T15:38:08;5.20;99.90
20045;DHT22;10183;47.808;9.476;2023-11-18T15:40:57;5.20;99.90
20045;DHT22;10183;47.808;9.476;2023-11-18T15:43:44;5.20;99.90
20045;DHT22;10183;47.808;9.476;2023-11-18T15:46:30;5.10;99.90
20045;DHT22;10183;47.808;9.476;2023-11-18T15:49:16;5.10;99.90
20045;DHT22;10183;47.808;9.476;2023-11-18T15:52:02;5.20;99.90
20045;DHT22;10183;47.808;9.476;2023-11-18T15:54:48;5.20;99.90
20045;DHT22;10183;47.808;9.476;2023-11-18T15:57:34;5.20;99.90
20045;DHT22;10183;47.808;9.476;2023-11-18T16:00:22;5.10;99.90
20045;DHT22;10183;47.808;9.476;2023-11-18T16:03:10;5.10;99.90
20045;DHT22;10183;47.808;9.476;2023-11-18T16:05:56;5.10;99.90
20045;DHT22;10183;47.808;9.476;2023-11-18T16:08:42;5.10;99.90
20045;DHT22;10183;47.808;9.476;2023-11-18T16:11:31;5.20;99.90
20045;DHT22;10183;47.808;9.476;2023-11-18T16:14:18;5.10;99.90
20045;DHT22;10183;47.808;9.476;2023-11-18T16:17:06;5.10;99.90
20045;DHT22;10183;47.808;9.476;2023-11-18T16:19:52;5.20;99.90
20045;DHT22;10183;47.808;9.476;2023-11-18T16:22:38;5.20;99.90
20045;DHT22;10183;47.808;9.476;2023-11-18T16:25:26;5.10;99.90
20045;DHT22;10183;47.808;9.476;2023-11-18T16:28:20;5.10;99.90
20045;DHT22;10183;47.808;9.476;2023-11-18T16:31:06;5.10;99.90
20045;DHT22;10183;47.808;9.476;2023-11-18T16:33:52;5.10;99.90
20045;DHT22;10183;47.808;9.476;2023-11-18T16:36:38;5.10;99.90
20045;DHT22;10183;47.808;9.476;2023-11-18T16:39:25;5.10;99.90
20045;DHT22;10183;47.808;9.476;2023-11-18T16:42:11;5.10;99.90
20045;DHT22;10183;47.808;9.476;2023-11-18T16:44:57;5.10;99.90
20045;DHT22;10183;47.808;9.476;2023-11-18T16:47:45;5.00;99.90
20045;DHT22;10183;47.808;9.476;2023-11-18T16:50:36;5.00;99.90
20045;DHT22;10183;47.808;9.476;2023-11-18T16:53:22;5.00;99.90
20045;DHT22;10183;47.808;9.476;2023-11-18T16:56:08;5.00;99.90
20045;DHT22;10183;47.808;9.476;2023-11-18T16:58:55;5.00;99.90
20045;DHT22;10183;47.808;9.476;2023-11-18T17:01:41;5.00;99.90
20045;DHT22;10183;47.808;9.476;2023-11-18T17:04:27;5.00;99.90
20045;DHT22;10183;47.808;9.476;2023-11-18T17:07:13;5.00;99.90
20045;DHT22;10183;47.808;9.476;2023-11-18T17:09:59;5.00;99.90
20045;DHT22;10183;47.808;9.476;2023-11-18T17:12:46;5.00;99.90
20045;DHT22;10183;47.808;9.476;2023-11-18T17:15:33;5.00;99.90
20045;DHT22;10183;47.808;9.476;2023-11-18T17:18:20;4.90;99.90
20045;DHT22;10183;47.808;9.476;2023-11-18T17:21:06;4.90;99.90
20045;DHT22;10183;47.808;9.476;2023-11-18T17:23:54;5.00;99.90
20045;DHT22;10183;47.808;9.476;2023-11-18T17:26:40;5.00;99.90
20045;DHT22;10183;47.808;9.476;2023-11-18T17:29:26;5.00;99.90
20045;DHT22;10183;47.808;9.476;2023-11-18T17:32:12;4.90;99.90
20045;DHT22;10183;47.808;9.476;2023-11-18T17:34:58;5.00;99.90
20045;DHT22;10183;47.808;9.476;2023-11-18T17:37:46;5.00;99.90
20045;DHT22;10183;47.808;9.476;2023-11-18T17:40:32;5.00;99.90
20045;DHT22;10183;47.808;9.476;2023-11-18T17:43:18;4.90;99.90
20045;DHT22;10183;47.808;9.476;2023-11-18T17:46:04;5.00;99.90
20045;DHT22;10183;47.808;9.476;2023-11-18T17:48:50;5.00;99.90
20045;DHT22;10183;47.808;9.476;2023-11-18T17:51:36;5.00;99.90
20045;DHT22;10183;47.808;9.476;2023-11-18T17:54:22;4.90;99.90
20045;DHT22;10183;47.808;9.476;2023-11-18T17:57:08;4.90;99.90
20045;DHT22;10183;47.808;9.476;2023-11-18T17:59:54;4.80;99.90
20045;DHT22;10183;47.808;9.476;2023-11-18T18:02:41;4.80;99.90
20045;DHT22;10183;47.808;9.476;2023-11-18T18:05:27;4.80;99.90